Logo AVAMET
Benvolgut visitant, si us plau, ingressa Recuperar contrasenya

Inforatge Piles

Dades diàries. Acumulats / Últims 30 dies disponibles

Data Temperatura (°C) Humitat rel. (%) Pressió rel. (hPa) Vent (km/h) Precipitació
Mínima Mitjana Màxima Amplitud
tèrmica
Mínima Mitjana Màxima Mínima Mitjana Màxima Predom. Mitjana Ràfega
màxima
Total
(mm)
Índex-n
Mínima Mitjana Màxima Mínima Mitjana Màxima n
0 a 1
P0 max
mm 5'
Dades mensuals acumulades fins l'últim dia disponible
07/2019 21,9 23,5 26,2 26,5 26,6 30,1 37,8 15,9 22 76 93 1.012 1.018 1.025   8,7 51,9 0,2
Dades anuals acumulades fins l'últim dia disponible
2019 3,3 13,6 26,2 17,3 10,7 21,5 37,8 34,5 15 67 99 997 1.021 1.039   8,7 75,9 242,8
Últims 30 dies disponibles
21-07-2019 24,1     26,3     28,6 4,5 78 84 90 1.021 1.023 1.025 S 6,7 25,9 0,0
20-07-2019 22,9     25,7     27,8 4,9 67 81 89 1.018 1.019 1.022 SE 6,2 25,9 0,0
19-07-2019 23,4     25,8     27,8 4,4 69 79 84 1.017 1.019 1.021 SE 12,2 46,7 0,0
18-07-2019 23,6     26,3     30,0 6,4 55 74 83 1.016 1.018 1.019 S 11,0 40,7 0,0
17-07-2019 22,7     26,4     30,2 7,5 42 70 86 1.015 1.017 1.019 SE 11,5 46,7 0,0
16-07-2019 24,3     27,2     31,3 7,0 45 72 93 1.016 1.018 1.020 ESE 15,9 51,9 0,0
15-07-2019 23,4     26,5     29,2 5,8 66 77 84 1.014 1.015 1.017 SSE 8,2 33,9 0,0
14-07-2019 23,6     25,8     27,7 4,1 69 81 89 1.014 1.015 1.016 S 8,4 32,2 0,0
13-07-2019 24,6     26,5     28,7 4,1 59 77 88 1.015 1.017 1.019 ESE 6,6 25,9 0,0
12-07-2019 23,2     28,4     36,6 13,4 33 65 82 1.015 1.018 1.020 SE 8,2 33,9 0,0
11-07-2019 23,1     27,8     34,7 11,6 36 66 86 1.015 1.017 1.019 SSE 10,1 35,4 0,0
10-07-2019 22,8     25,9     30,2 7,4 55 76 86 1.016 1.018 1.020 SSE 10,5 46,7 0,0
09-07-2019 23,3     27,0     31,4 8,1 42 67 87 1.014 1.015 1.017 S 11,7 43,5 0,0
08-07-2019 24,9     26,2     28,4 3,5 72 81 86 1.014 1.015 1.018 SSE 5,7 29,6 0,0
07-07-2019 26,2     29,2     33,4 7,2 37 68 87 1.012 1.015 1.017 SSE 7,7 42,6 0,0
06-07-2019 24,1     28,5     37,8 13,7 22 73 90 1.013 1.016 1.018 SSE 6,4 50,0 0,2
05-07-2019 23,1     25,9     28,3 5,2 69 81 88 1.017 1.019 1.021 SSE 9,2 31,5 0,0
04-07-2019 22,5     25,4     27,5 5,0 72 81 87 1.018 1.020 1.021 SE 7,0 25,9 0,0
03-07-2019 22,0     25,1     27,5 5,5 61 78 90 1.017 1.018 1.019 SSE 7,7 29,6 0,0
02-07-2019 22,8     25,0     26,6 3,8 79 85 91 1.017 1.019 1.020 ESE 6,3 31,5 0,0
01-07-2019 21,9     25,0     27,4 5,5 74 83 92 1.018 1.020 1.021 SSE 6,3 27,8 0,0
30-06-2019 21,7     26,1     29,4 7,7 45 65 92 1.019 1.020 1.022 ESE 5,8 20,9 0,0
29-06-2019 22,0     27,5     32,0 10,0 45 57 79 1.017 1.018 1.020 SE 8,0 33,9 0,0
28-06-2019 22,1     26,6     31,8 9,7 45 63 77 1.018 1.020 1.022 SSE 6,6 22,6 0,0
27-06-2019 21,3     24,6     27,4 6,1 70 83 93 1.022 1.023 1.025 SSE 6,3 22,6 0,0
26-06-2019 22,4     23,8     26,1 3,7 81 87 92 1.021 1.022 1.024 SO 8,8 31,5 0,0
25-06-2019 20,4     23,2     25,9 5,5 70 81 90 1.019 1.020 1.022 S 6,6 25,9 0,0
24-06-2019 19,7     22,7     25,1 5,4 65 81 90 1.017 1.018 1.019 SO 7,3 27,8 0,0
23-06-2019 19,0     22,5     24,6 5,6 73 83 92 1.017 1.019 1.019 SSE 7,9 31,5 0,0
22-06-2019 19,2     22,0     24,7 5,5 56 80 88 1.018 1.020 1.021 SSE 8,1 27,8 0,0
Últims 13 mesos disponibles
06/2019 14,2 18,6 22,4 22,6 20,2 26,8 33,0 18,8 41 71 87 1.012 1.019 1.025 SSE 9,0 48,3 0,0
05/2019 10,9 15,4 21,9 19,1 17,7 23,6 31,2 20,3 50 71 84 1.009 1.019 1.028 SSE 8,6 51,9 7,0
04/2019 8,7 12,4 15,3 15,8 14,8 19,6 28,2 19,5 42 70 94 1.003 1.016 1.029 S 10,0 69,3 191,8
03/2019 8,1 10,4 15,0 14,8 11,8 19,1 28,4 20,3 32 64 92 1.015 1.026 1.033 S 7,7 46,7 41,8
02/2019 5,8 8,8 11,9 12,7 12,9 16,8 22,4 16,6 35 65 83 999 1.028 1.037 SSO 7,9 75,9 0,0
01/2019 3,3 8,6 13,8 12,2 10,7 16,5 21,1 17,8 42 58 77 1.006 1.022 1.034 SSO 8,7 64,8 2,0
12/2018 7,2 10,4 14,7 14,0 14,4 18,3 24,4 17,2 53 69 88 1.012 1.028 1.034 SSO 7,1 48,3 22,8
11/2018 9,1 12,5 16,2 15,4 16,2 18,8 22,3 13,2 50 72 94 1.004 1.019 1.027 SO 6,9 69,3 214,6
10/2018 8,8 16,1 21,1 19,1 15,3 22,7 29,3 20,5 45 74 89 1.003 1.018 1.029 S 7,1 53,7 154,8
09/2018 17,2 21,2 24,7 24,2 24,4 27,6 31,6 14,4 63 80 89 1.016 1.022 1.031 7,0 70,9 104,4
08/2018 19,8 24,0 26,2 27,0 25,8 30,4 37,3 17,5 52 75 87 1.015 1.020 1.025 8,9 51,9 83,6
07/2018 22,1 23,7 26,4 26,9 26,3 31,2 37,2 15,1 36 72 85 1.013 1.018 1.023 9,3 50,0 2,4
06/2018 15,4 20,0 23,2 23,5 22,2 27,4 32,7 17,3 50 69 84 1.013 1.018 1.024 8,8 45,0 49,0
Tots els anys disponibles
Temperatura (°C)
Humitat relativa (%)
Velocitat del vent i ràfega màxima (km/h)
Direcció del vent (°)
Pressió (hPa)
Precipitació (mm)
Nota sobre les dades: s'avisa a l'usuari de la provisionalitat i no oficialitat d'aquestes dades
Logo AVAMET blanc
Web allotjada a Sollutia
Llicència de Creative CommonsLa web d'AVAMET i els seus continguts estan subjectes a una llicència de
Reconeixement - No Comercial - Compartir igual
Properes estacions: Altea - Club Nàutic d'Altea (Soci), Ares del Maestrat (Ajuntament Soci),      - - - - -      Últimes estacions: Catadau - Urb. Lloma Molina (Inforatge), Ontinyent - El Pilar (Soci), Asp - Poliesportiu (Soci) - - -